JBU1966 KFLL-KTYS
Flight info
| Callsign | JBU1966 |
|---|---|
| Flight time | N/A |
| Altitude | 36000 |
| Route | FRSBE2 STYMY Q77 MJAMS/N0453F350 Q77 SHRKS/N0454F360 Q77 TEUFL DCT ODF DCT |
| Aircraft | A320/M-SDE3FGHIRWY/LB1 |
Departure
| Time | 2026-05-06 22:51 |
|---|---|
| Airport | Fort Lauderdale Hollywood International Airport (KFLL) |
Arrival
| Time | N/A |
|---|---|
| Airport | McGhee Tyson Airport (KTYS) |
| Time | Latitude | Longitude | Altitude | Speed | Heading |
|---|---|---|---|---|---|
| 2026-05-06 22:36 | 26.07149 | -80.14647 | 17 ft | 0 kts | 179° |
| 2026-05-06 22:38 | 26.07167 | -80.14646 | 17 ft | 3 kts | 183° |
| 2026-05-06 22:38 | 26.07179 | -80.14645 | 17 ft | 0 kts | 168° |
| 2026-05-06 22:45 | 26.07178 | -80.14645 | 17 ft | 0 kts | 168° |
| 2026-05-06 22:45 | 26.07168 | -80.14643 | 17 ft | 3 kts | 174° |
| 2026-05-06 22:46 | 26.07176 | -80.14658 | 18 ft | 5 kts | 322° |
| 2026-05-06 22:46 | 26.07204 | -80.14693 | 17 ft | 7 kts | 300° |
| 2026-05-06 22:46 | 26.07234 | -80.14750 | 16 ft | 10 kts | 300° |
| 2026-05-06 22:46 | 26.07247 | -80.14775 | 16 ft | 0 kts | 300° |
| 2026-05-06 22:47 | 26.07260 | -80.14802 | 16 ft | 13 kts | 300° |
| 2026-05-06 22:47 | 26.07345 | -80.14855 | 16 ft | 15 kts | 354° |
| 2026-05-06 22:47 | 26.07401 | -80.14926 | 16 ft | 14 kts | 298° |
| 2026-05-06 22:47 | 26.07466 | -80.15019 | 16 ft | 18 kts | 314° |
| 2026-05-06 22:48 | 26.07489 | -80.15153 | 16 ft | 19 kts | 270° |
| 2026-05-06 22:48 | 26.07490 | -80.15322 | 16 ft | 24 kts | 271° |
| 2026-05-06 22:48 | 26.07493 | -80.15512 | 16 ft | 26 kts | 270° |
| 2026-05-06 22:48 | 26.07494 | -80.15720 | 16 ft | 28 kts | 269° |
| 2026-05-06 22:49 | 26.07490 | -80.15937 | 16 ft | 29 kts | 272° |
| 2026-05-06 22:49 | 26.07494 | -80.16148 | 16 ft | 22 kts | 273° |
| 2026-05-06 22:49 | 26.07497 | -80.16325 | 16 ft | 24 kts | 270° |
| 2026-05-06 22:49 | 26.07497 | -80.16518 | 16 ft | 26 kts | 270° |
| 2026-05-06 22:50 | 26.07510 | -80.16630 | 17 ft | 8 kts | 314° |
| 2026-05-06 22:50 | 26.07574 | -80.16646 | 16 ft | 13 kts | 357° |
| 2026-05-06 22:50 | 26.07675 | -80.16644 | 18 ft | 11 kts | 18° |
| 2026-05-06 22:50 | 26.07696 | -80.16563 | 18 ft | 14 kts | 91° |
| 2026-05-06 22:51 | 26.07691 | -80.16205 | 20 ft | 81 kts | 90° |
| 2026-05-06 22:51 | 26.07685 | -80.15352 | 17 ft | 136 kts | 90° |
| 2026-05-06 22:51 | 26.07681 | -80.14220 | 378 ft | 149 kts | 90° |
| 2026-05-06 22:51 | 26.07707 | -80.13059 | 1003 ft | 150 kts | 88° |
| 2026-05-06 22:52 | 26.07746 | -80.11879 | 1455 ft | 160 kts | 89° |
| 2026-05-06 22:52 | 26.07788 | -80.10553 | 1726 ft | 183 kts | 87° |
| 2026-05-06 22:52 | 26.08104 | -80.09099 | 1989 ft | 207 kts | 68° |
| 2026-05-06 22:52 | 26.08821 | -80.07618 | 2260 ft | 231 kts | 49° |
| 2026-05-06 22:53 | 26.10234 | -80.06601 | 2659 ft | 257 kts | 21° |
| 2026-05-06 22:53 | 26.11948 | -80.05913 | 3432 ft | 265 kts | 19° |
| 2026-05-06 22:53 | 26.13701 | -80.05222 | 4359 ft | 268 kts | 17° |
| 2026-05-06 22:53 | 26.15524 | -80.04847 | 5303 ft | 267 kts | 356° |
| 2026-05-06 22:54 | 26.17343 | -80.05288 | 6181 ft | 271 kts | 340° |
| 2026-05-06 22:54 | 26.19128 | -80.05993 | 7010 ft | 274 kts | 341° |
| 2026-05-06 22:54 | 26.20311 | -80.06499 | 7560 ft | 276 kts | 335° |
| 2026-05-06 22:54 | 26.22377 | -80.08240 | 8600 ft | 285 kts | 312° |
| 2026-05-06 22:55 | 26.23129 | -80.09452 | 9123 ft | 290 kts | 300° |
| 2026-05-06 22:55 | 26.23923 | -80.11539 | 9891 ft | 296 kts | 294° |
| 2026-05-06 22:55 | 26.24951 | -80.14448 | 10386 ft | 319 kts | 294° |
| 2026-05-06 22:55 | 26.25943 | -80.16733 | 10634 ft | 334 kts | 304° |
| 2026-05-06 22:56 | 26.26791 | -80.18221 | 10989 ft | 339 kts | 305° |
| 2026-05-06 22:56 | 26.28479 | -80.21180 | 11799 ft | 344 kts | 305° |
| 2026-05-06 22:56 | 26.29348 | -80.22702 | 12245 ft | 346 kts | 305° |
| 2026-05-06 22:56 | 26.30641 | -80.24975 | 12909 ft | 348 kts | 305° |
| 2026-05-06 22:57 | 26.31938 | -80.27266 | 13557 ft | 351 kts | 305° |
| 2026-05-06 22:57 | 26.33244 | -80.29577 | 14183 ft | 354 kts | 305° |
| 2026-05-06 22:57 | 26.34560 | -80.31906 | 14757 ft | 356 kts | 305° |
| 2026-05-06 22:57 | 26.35884 | -80.34246 | 15330 ft | 358 kts | 304° |
| 2026-05-06 22:58 | 26.37215 | -80.36598 | 15918 ft | 360 kts | 304° |
| 2026-05-06 22:58 | 26.38553 | -80.38963 | 16495 ft | 362 kts | 304° |
| 2026-05-06 22:58 | 26.39883 | -80.41307 | 17057 ft | 363 kts | 304° |
| 2026-05-06 22:58 | 26.41240 | -80.43696 | 17609 ft | 366 kts | 303° |
| 2026-05-06 22:59 | 26.42604 | -80.46104 | 18176 ft | 368 kts | 303° |
| 2026-05-06 22:59 | 26.43972 | -80.48529 | 18672 ft | 370 kts | 303° |
| 2026-05-06 22:59 | 26.45345 | -80.50967 | 19190 ft | 372 kts | 303° |
| 2026-05-06 22:59 | 26.46785 | -80.53361 | 19733 ft | 372 kts | 309° |
| 2026-05-06 23:00 | 26.48608 | -80.55408 | 20233 ft | 374 kts | 321° |
| 2026-05-06 23:00 | 26.50799 | -80.56976 | 20770 ft | 376 kts | 333° |
| 2026-05-06 23:00 | 26.53255 | -80.57999 | 21317 ft | 379 kts | 342° |
| 2026-05-06 23:00 | 26.55791 | -80.58797 | 21868 ft | 380 kts | 342° |
| 2026-05-06 23:01 | 26.58343 | -80.59603 | 22423 ft | 381 kts | 341° |
| 2026-05-06 23:01 | 26.60901 | -80.60415 | 22953 ft | 383 kts | 341° |
| 2026-05-06 23:01 | 26.63467 | -80.61230 | 23466 ft | 385 kts | 341° |
| 2026-05-06 23:01 | 26.66047 | -80.62048 | 23911 ft | 386 kts | 341° |
| 2026-05-06 23:02 | 26.68642 | -80.62872 | 24308 ft | 389 kts | 341° |
| 2026-05-06 23:02 | 26.71249 | -80.63698 | 24689 ft | 391 kts | 341° |
| 2026-05-06 23:02 | 26.73874 | -80.64531 | 25062 ft | 393 kts | 341° |
| 2026-05-06 23:02 | 26.76517 | -80.65374 | 25435 ft | 396 kts | 341° |
| 2026-05-06 23:03 | 26.79171 | -80.66225 | 25803 ft | 398 kts | 341° |
| 2026-05-06 23:03 | 26.81844 | -80.67081 | 26166 ft | 401 kts | 341° |
| 2026-05-06 23:03 | 26.84535 | -80.67942 | 26525 ft | 403 kts | 341° |
| 2026-05-06 23:03 | 26.87241 | -80.68807 | 26887 ft | 406 kts | 340° |
| 2026-05-06 23:04 | 26.89961 | -80.69673 | 27251 ft | 407 kts | 340° |
| 2026-05-06 23:04 | 26.92690 | -80.70565 | 27603 ft | 409 kts | 339° |
| 2026-05-06 23:04 | 26.95407 | -80.71539 | 27942 ft | 411 kts | 338° |
| 2026-05-06 23:04 | 26.98117 | -80.72575 | 28283 ft | 413 kts | 337° |
| 2026-05-06 23:05 | 27.00837 | -80.73644 | 28619 ft | 415 kts | 337° |
| 2026-05-06 23:05 | 27.03570 | -80.74718 | 28965 ft | 418 kts | 337° |
| 2026-05-06 23:05 | 27.06328 | -80.75792 | 29312 ft | 420 kts | 337° |
| 2026-05-06 23:05 | 27.09103 | -80.76858 | 29654 ft | 423 kts | 338° |
| 2026-05-06 23:06 | 27.11902 | -80.77921 | 29993 ft | 426 kts | 338° |
| 2026-05-06 23:06 | 27.14719 | -80.78983 | 30300 ft | 428 kts | 338° |
| 2026-05-06 23:06 | 27.17548 | -80.80048 | 30606 ft | 430 kts | 337° |
| 2026-05-06 23:06 | 27.20389 | -80.81120 | 30922 ft | 431 kts | 337° |
| 2026-05-06 23:07 | 27.23237 | -80.82198 | 31221 ft | 432 kts | 337° |
| 2026-05-06 23:07 | 27.26091 | -80.83284 | 31515 ft | 434 kts | 337° |
| 2026-05-06 23:07 | 27.28947 | -80.84373 | 31888 ft | 433 kts | 337° |
| 2026-05-06 23:07 | 27.31794 | -80.85457 | 32326 ft | 431 kts | 337° |
| 2026-05-06 23:08 | 27.34623 | -80.86554 | 32765 ft | 429 kts | 336° |
| 2026-05-06 23:08 | 27.37422 | -80.87685 | 33193 ft | 427 kts | 336° |
| 2026-05-06 23:08 | 27.40204 | -80.88840 | 33652 ft | 425 kts | 335° |
| 2026-05-06 23:08 | 27.42967 | -80.90001 | 34101 ft | 423 kts | 335° |
| 2026-05-06 23:09 | 27.45719 | -80.91157 | 34479 ft | 422 kts | 335° |
| 2026-05-06 23:09 | 27.48468 | -80.92304 | 34830 ft | 421 kts | 335° |
| 2026-05-06 23:09 | 27.51215 | -80.93439 | 35182 ft | 420 kts | 335° |
| 2026-05-06 23:09 | 27.53961 | -80.94565 | 35524 ft | 419 kts | 335° |
| 2026-05-06 23:10 | 27.56697 | -80.95684 | 35869 ft | 418 kts | 335° |
| 2026-05-06 23:10 | 27.59432 | -80.96806 | 36029 ft | 417 kts | 335° |
| 2026-05-06 23:10 | 27.62150 | -80.97925 | 36057 ft | 415 kts | 335° |
| 2026-05-06 23:11 | 27.67554 | -81.00162 | 36055 ft | 413 kts | 335° |
| 2026-05-06 23:11 | 27.72956 | -81.02396 | 36059 ft | 413 kts | 335° |
| 2026-05-06 23:12 | 27.78356 | -81.04629 | 36075 ft | 413 kts | 335° |
| 2026-05-06 23:12 | 27.83749 | -81.06861 | 36057 ft | 413 kts | 335° |
| 2026-05-06 23:13 | 27.89136 | -81.09107 | 36067 ft | 413 kts | 335° |
| 2026-05-06 23:13 | 27.94527 | -81.11357 | 36076 ft | 413 kts | 335° |
| 2026-05-06 23:14 | 27.99925 | -81.13596 | 36075 ft | 413 kts | 335° |
| 2026-05-06 23:14 | 28.05300 | -81.15883 | 36087 ft | 412 kts | 333° |
| 2026-05-06 23:15 | 28.10519 | -81.18511 | 36105 ft | 410 kts | 330° |
| 2026-05-06 23:15 | 28.15667 | -81.21281 | 36099 ft | 409 kts | 330° |
| 2026-05-06 23:16 | 28.20825 | -81.24004 | 36093 ft | 409 kts | 330° |
| 2026-05-06 23:16 | 28.26012 | -81.26677 | 36088 ft | 409 kts | 330° |
| 2026-05-06 23:17 | 28.31167 | -81.29318 | 36081 ft | 409 kts | 330° |
| 2026-05-06 23:17 | 28.36392 | -81.32007 | 36078 ft | 410 kts | 330° |
| 2026-05-06 23:18 | 28.41558 | -81.34648 | 36093 ft | 410 kts | 330° |
| 2026-05-06 23:18 | 28.46763 | -81.37304 | 36087 ft | 410 kts | 330° |
| 2026-05-06 23:19 | 28.51970 | -81.39967 | 36077 ft | 410 kts | 330° |
| 2026-05-06 23:19 | 28.57175 | -81.42623 | 36074 ft | 410 kts | 330° |
| 2026-05-06 23:20 | 28.62376 | -81.45287 | 36075 ft | 410 kts | 330° |
| 2026-05-06 23:20 | 28.67569 | -81.47966 | 36076 ft | 410 kts | 330° |
| 2026-05-06 23:21 | 28.72764 | -81.50641 | 36097 ft | 409 kts | 330° |
| 2026-05-06 23:21 | 28.77953 | -81.53306 | 36096 ft | 409 kts | 330° |
| 2026-05-06 23:22 | 28.83136 | -81.55979 | 36090 ft | 409 kts | 330° |
| 2026-05-06 23:22 | 28.88311 | -81.58652 | 36093 ft | 408 kts | 330° |
| 2026-05-06 23:23 | 28.93665 | -81.60907 | 36088 ft | 418 kts | 342° |
| 2026-05-06 23:23 | 28.99529 | -81.61556 | 36109 ft | 424 kts | 348° |
| 2026-05-06 23:24 | 29.05413 | -81.62087 | 36095 ft | 424 kts | 348° |
| 2026-05-06 23:24 | 29.11303 | -81.62616 | 36088 ft | 424 kts | 348° |
| 2026-05-06 23:25 | 29.17189 | -81.63152 | 36083 ft | 425 kts | 347° |
| 2026-05-06 23:25 | 29.23041 | -81.63688 | 36086 ft | 425 kts | 348° |
| 2026-05-06 23:26 | 29.28934 | -81.64227 | 36098 ft | 425 kts | 347° |
| 2026-05-06 23:26 | 29.34820 | -81.64770 | 36090 ft | 424 kts | 347° |
| 2026-05-06 23:27 | 29.40709 | -81.65318 | 36084 ft | 424 kts | 347° |
| 2026-05-06 23:27 | 29.46598 | -81.65858 | 36058 ft | 425 kts | 347° |
| 2026-05-06 23:28 | 29.52499 | -81.66403 | 36061 ft | 426 kts | 347° |
| 2026-05-06 23:28 | 29.58403 | -81.66947 | 36079 ft | 426 kts | 347° |
| 2026-05-06 23:29 | 29.64320 | -81.67499 | 36076 ft | 426 kts | 347° |
| 2026-05-06 23:29 | 29.70234 | -81.68048 | 36071 ft | 427 kts | 347° |
| 2026-05-06 23:30 | 29.76155 | -81.68599 | 36070 ft | 427 kts | 347° |
| 2026-05-06 23:30 | 29.82080 | -81.69138 | 36068 ft | 427 kts | 347° |
| 2026-05-06 23:31 | 29.88005 | -81.69680 | 36082 ft | 427 kts | 347° |
| 2026-05-06 23:31 | 29.93934 | -81.70233 | 36060 ft | 427 kts | 347° |
| 2026-05-06 23:32 | 29.99860 | -81.70792 | 36053 ft | 427 kts | 347° |
| 2026-05-06 23:32 | 30.05790 | -81.71350 | 36049 ft | 428 kts | 347° |
| 2026-05-06 23:33 | 30.11723 | -81.71898 | 36044 ft | 428 kts | 347° |
| 2026-05-06 23:33 | 30.17659 | -81.72456 | 36056 ft | 428 kts | 347° |
| 2026-05-06 23:34 | 30.23601 | -81.73008 | 36063 ft | 429 kts | 347° |
| 2026-05-06 23:34 | 30.29548 | -81.73563 | 36060 ft | 429 kts | 347° |
| 2026-05-06 23:35 | 30.35499 | -81.74124 | 36062 ft | 429 kts | 347° |
| 2026-05-06 23:35 | 30.41452 | -81.74681 | 36033 ft | 429 kts | 347° |
| 2026-05-06 23:36 | 30.47406 | -81.75240 | 36031 ft | 429 kts | 347° |
| 2026-05-06 23:36 | 30.53364 | -81.75800 | 36032 ft | 429 kts | 347° |
| 2026-05-06 23:37 | 30.59321 | -81.76358 | 36034 ft | 429 kts | 347° |
| 2026-05-06 23:37 | 30.65205 | -81.77213 | 36042 ft | 424 kts | 342° |
| 2026-05-06 23:38 | 30.71017 | -81.78380 | 36055 ft | 424 kts | 342° |
| 2026-05-06 23:38 | 30.76842 | -81.79547 | 36044 ft | 425 kts | 342° |
| 2026-05-06 23:39 | 30.82673 | -81.80712 | 36050 ft | 426 kts | 342° |
| 2026-05-06 23:39 | 30.88513 | -81.81888 | 36050 ft | 426 kts | 342° |
| 2026-05-06 23:40 | 30.94355 | -81.83061 | 36040 ft | 426 kts | 342° |
| 2026-05-06 23:40 | 30.99212 | -81.84037 | 36053 ft | 426 kts | 342° |
| 2026-05-06 23:41 | 31.05063 | -81.85216 | 36046 ft | 427 kts | 342° |
| 2026-05-06 23:41 | 31.10917 | -81.86395 | 36042 ft | 427 kts | 342° |
| 2026-05-06 23:42 | 31.16776 | -81.87580 | 36043 ft | 427 kts | 342° |
| 2026-05-06 23:42 | 31.22638 | -81.88760 | 36043 ft | 428 kts | 342° |
| 2026-05-06 23:43 | 31.28503 | -81.89939 | 36070 ft | 428 kts | 342° |
| 2026-05-06 23:43 | 31.34366 | -81.91125 | 36065 ft | 427 kts | 342° |
| 2026-05-06 23:44 | 31.40226 | -81.92316 | 36066 ft | 427 kts | 342° |
| 2026-05-06 23:44 | 31.46087 | -81.93506 | 36066 ft | 427 kts | 342° |
| 2026-05-06 23:45 | 31.51947 | -81.94699 | 36063 ft | 427 kts | 342° |
| 2026-05-06 23:45 | 31.57807 | -81.95893 | 36083 ft | 427 kts | 341° |
| 2026-05-06 23:46 | 31.63623 | -81.97074 | 36076 ft | 427 kts | 341° |
| 2026-05-06 23:46 | 31.69466 | -81.98266 | 36051 ft | 426 kts | 341° |
| 2026-05-06 23:47 | 31.75308 | -81.99460 | 36041 ft | 426 kts | 341° |
| 2026-05-06 23:47 | 31.81148 | -82.00660 | 36035 ft | 426 kts | 341° |
| 2026-05-06 23:48 | 31.86927 | -82.01964 | 36038 ft | 414 kts | 334° |
| 2026-05-06 23:48 | 31.92284 | -82.04226 | 36035 ft | 408 kts | 330° |
| 2026-05-06 23:49 | 31.97600 | -82.06563 | 36033 ft | 408 kts | 330° |
| 2026-05-06 23:49 | 32.02917 | -82.08900 | 36032 ft | 408 kts | 330° |
| 2026-05-06 23:50 | 32.08242 | -82.11237 | 36030 ft | 408 kts | 330° |
| 2026-05-06 23:50 | 32.16219 | -82.14746 | 36048 ft | 407 kts | 330° |
| 2026-05-06 23:51 | 32.21520 | -82.17076 | 36043 ft | 406 kts | 330° |
| 2026-05-06 23:51 | 32.26808 | -82.19403 | 36035 ft | 405 kts | 330° |
| 2026-05-06 23:52 | 32.32090 | -82.21734 | 36027 ft | 405 kts | 330° |
| 2026-05-06 23:52 | 32.37367 | -82.24070 | 36026 ft | 405 kts | 330° |
| 2026-05-06 23:53 | 32.42623 | -82.26398 | 36018 ft | 401 kts | 329° |
| 2026-05-06 23:53 | 32.47850 | -82.28717 | 36009 ft | 401 kts | 329° |
| 2026-05-06 23:54 | 32.53081 | -82.31037 | 36003 ft | 402 kts | 329° |
| 2026-05-06 23:54 | 32.58318 | -82.33360 | 36005 ft | 402 kts | 329° |
| 2026-05-06 23:55 | 32.63555 | -82.35690 | 36002 ft | 402 kts | 329° |
| 2026-05-06 23:55 | 32.68790 | -82.38025 | 36032 ft | 402 kts | 329° |